< < Back
Terminal Aerodrome Forecast


Current Version              Previous Versions:   1  2  3  4  5  6  7  8  9  

Terminal Aerodrome Forecast

098
FTUS42 KGSP 220427 AAB
TAFHKY
TAF AMD
KHKY 220427Z 2204/2224 33004KT P6SM BKN250
     FM220600 01008KT P6SM FEW040
     FM221700 34003KT P6SM SKC=



Latest METAR

293
SAUS70 KWBC 221600 RRE
MTRHKY
METAR KHKY 221553Z 36006KT 10SM CLR 20/01 A3023 RMK AO2 SLP220
T02000011


USA.gov is the U.S. government's official web portal to all federal, state and local government web resources and services.